Time;durP1;ratioP1;P1;durP2;ratioP2;P2;SDS_P1;SDS_P2;PMS_P1;PMS_P2;Temp;Humidity;BMP_temperature;BMP_pressure;BME280_temperature;BME280_humidity;BME280_pressure;Samples;Min_cycle;Max_cycle;Signal;HPM_P1;HPM_P2
2020/12/01 00:01:50;;;;;;;44.57;23.10;;;;;;;0.17;70.77;100656.23;1713054;81;21214;-54
2020/12/01 00:04:17;;;;;;;45.47;24.17;;;;;;;0.16;70.70;100657.11;1716404;81;21407;-54
2020/12/01 00:06:45;;;;;;;42.07;23.53;;;;;;;0.12;70.74;100656.61;1733170;80;21185;-54
2020/12/01 00:09:13;;;;;;;46.00;23.20;;;;;;;0.10;70.75;100662.32;1732751;80;21146;-54
2020/12/01 00:11:40;;;;;;;46.10;23.70;;;;;;;0.10;70.76;100672.91;1732267;80;22080;-54
2020/12/01 00:14:08;;;;;;;44.97;25.30;;;;;;;0.08;70.69;100673.36;1735752;80;21182;-54
2020/12/01 00:16:35;;;;;;;54.97;26.93;;;;;;;0.06;70.65;100673.34;1739139;80;21656;-54
2020/12/01 00:19:03;;;;;;;42.87;24.60;;;;;;;0.07;70.62;100674.23;1736923;80;21115;-53
2020/12/01 00:21:30;;;;;;;45.50;23.43;;;;;;;0.05;70.59;100670.24;1734388;82;21112;-54
2020/12/01 00:23:57;;;;;;;45.27;23.93;;;;;;;0.03;70.65;100675.06;1737966;80;21503;-54
2020/12/01 00:26:24;;;;;;;55.07;27.57;;;;;;;0.03;70.59;100682.56;1734055;80;21115;-53
2020/12/01 00:28:52;;;;;;;47.60;24.17;;;;;;;0.03;70.61;100677.71;1732429;80;21135;-53
2020/12/01 00:31:19;;;;;;;47.40;24.00;;;;;;;0.00;70.59;100675.48;1717962;81;21139;-54
2020/12/01 00:33:47;;;;;;;47.03;24.50;;;;;;;0.01;70.77;100677.69;1734665;80;21660;-53
2020/12/01 00:36:14;;;;;;;46.03;22.67;;;;;;;-0.01;70.83;100676.38;1718490;81;22114;-54
2020/12/01 00:38:41;;;;;;;46.37;23.73;;;;;;;-0.02;70.80;100676.36;1719918;81;21124;-54
2020/12/01 00:41:09;;;;;;;39.70;21.40;;;;;;;-0.03;70.72;100678.55;1718395;81;21134;-54
2020/12/01 00:43:36;;;;;;;42.27;22.63;;;;;;;-0.06;70.73;100671.46;1735623;80;21171;-54
2020/12/01 00:46:03;;;;;;;43.27;22.93;;;;;;;-0.07;70.68;100671.00;1723661;81;21119;-53
2020/12/01 00:48:30;;;;;;;38.07;20.03;;;;;;;-0.05;70.72;100669.70;1712141;82;21197;-53
2020/12/01 00:50:58;;;;;;;44.27;21.23;;;;;;;-0.08;70.65;100670.55;1726167;81;21024;-54
2020/12/01 00:53:25;;;;;;;39.27;21.53;;;;;;;-0.08;70.63;100666.58;1681003;82;21138;-53
2020/12/01 00:55:53;;;;;;;47.93;23.23;;;;;;;-0.08;70.58;100673.20;1713877;82;21146;-54
2020/12/01 00:58:21;;;;;;;37.90;20.73;;;;;;;-0.10;70.59;100667.03;1713090;82;21147;-54
2020/12/01 01:00:50;;;;;;;36.20;19.20;;;;;;;-0.09;70.57;100664.84;1708940;82;22741;-53
2020/12/01 01:03:17;;;;;;;38.23;19.60;;;;;;;-0.09;70.51;100665.27;1711430;82;21134;-54
2020/12/01 01:05:44;;;;;;;39.40;19.40;;;;;;;-0.10;70.59;100668.79;1714098;82;21139;-53
2020/12/01 01:08:11;;;;;;;30.83;18.13;;;;;;;-0.11;70.54;100668.33;1719746;81;21151;-54
2020/12/01 01:10:40;;;;;;;36.50;19.23;;;;;;;-0.14;70.59;100673.59;1726134;80;21151;-54
2020/12/01 01:13:07;;;;;;;32.67;17.50;;;;;;;-0.14;70.53;100672.27;1705358;82;21570;-54
2020/12/01 01:15:35;;;;;;;31.63;17.53;;;;;;;-0.15;70.46;100677.10;1712882;81;21201;-54
2020/12/01 01:18:03;;;;;;;35.47;19.87;;;;;;;-0.14;70.42;100673.59;1730860;80;21156;-54
2020/12/01 01:20:30;;;;;;;39.63;20.47;;;;;;;-0.15;70.48;100672.70;1767023;79;21451;-54
2020/12/01 01:22:57;;;;;;;36.07;19.27;;;;;;;-0.14;70.45;100672.27;1764285;79;21179;-53
2020/12/01 01:25:25;;;;;;;35.27;21.97;;;;;;;-0.14;70.41;100678.88;1767001;79;21641;-53
2020/12/01 01:27:52;;;;;;;41.90;21.77;;;;;;;-0.16;70.46;100680.18;1769352;79;21126;-54
2020/12/01 01:30:22;;;;;;;35.40;20.87;;;;;;;-0.16;70.52;100681.50;1765905;79;21137;-53
2020/12/01 01:32:49;;;;;;;38.30;20.90;;;;;;;-0.16;70.57;100678.86;1767659;79;21142;-53
2020/12/01 01:35:18;;;;;;;34.07;17.93;;;;;;;-0.16;70.51;100674.00;1768785;79;21151;-53
2020/12/01 01:37:45;;;;;;;36.40;18.87;;;;;;;-0.17;70.53;100677.08;1730766;80;21028;-53
2020/12/01 01:40:24;;;;;;;30.57;17.30;;;;;;;-0.16;70.53;100676.21;1763445;79;21130;-54
2020/12/01 01:42:52;;;;;;;33.20;17.97;;;;;;;-0.17;70.53;100667.81;1764282;79;21102;-54
2020/12/01 01:45:45;;;;;;;31.07;16.40;;;;;;;-0.17;70.57;100663.00;1766258;79;21190;-53
2020/12/01 01:48:25;;;;;;;33.27;17.03;;;;;;;-0.21;70.65;100664.70;1766179;79;21135;-53
2020/12/01 01:50:57;;;;;;;31.20;15.40;;;;;;;-0.22;70.81;100671.30;1768158;79;22305;-53
2020/12/01 01:53:24;;;;;;;25.00;14.03;;;;;;;-0.21;70.70;100672.64;1765414;79;21124;-53
2020/12/01 01:55:56;;;;;;;35.33;16.33;;;;;;;-0.21;70.74;100671.76;1765570;79;21114;-53
2020/12/01 01:58:26;;;;;;;34.53;17.37;;;;;;;-0.22;70.74;100672.19;1750630;79;21734;-53
2020/12/01 02:00:57;;;;;;;31.23;17.23;;;;;;;-0.21;70.77;100672.64;1773290;79;21670;-54
2020/12/01 02:03:41;;;;;;;34.87;16.67;;;;;;;-0.20;70.81;100671.78;1739167;79;21207;-53
2020/12/01 02:06:23;;;;;;;32.00;17.05;;;;;;;-0.20;70.81;100667.81;1768725;79;21152;-53
2020/12/01 02:08:59;;;;;;;30.13;16.23;;;;;;;-0.19;70.83;100669.59;1764894;79;21155;-54
2020/12/01 02:11:28;;;;;;;30.63;17.83;;;;;;;-0.17;70.93;100669.61;1764919;79;21134;-53
2020/12/01 02:14:14;;;;;;;29.00;16.63;;;;;;;-0.16;70.94;100666.06;1726424;80;21581;-53
2020/12/01 02:16:55;;;;;;;29.03;15.80;;;;;;;-0.15;70.96;100659.47;1710075;81;21212;-53
2020/12/01 02:19:26;;;;;;;28.47;16.70;;;;;;;-0.13;70.96;100663.45;1700738;82;21164;-54
2020/12/01 02:21:56;;;;;;;32.37;16.20;;;;;;;-0.13;70.90;100669.64;1766256;79;21107;-54
2020/12/01 02:24:31;;;;;;;34.13;22.45;;;;;;;-0.09;70.95;100670.56;1850034;74;38670;-52
2020/12/01 02:27:00;;;;;;;25.23;16.00;;;;;;;-0.09;70.92;100676.75;1824403;75;21333;-53
2020/12/01 02:29:34;;;;;;;32.93;18.50;;;;;;;-0.03;70.80;100686.06;1819918;77;21356;-51
2020/12/01 02:32:03;;;;;;;31.93;16.55;;;;;;;-0.01;70.73;100688.30;1816912;77;21106;-54
2020/12/01 02:34:37;;;;;;;26.97;15.77;;;;;;;-0.01;70.75;100689.61;1813586;77;20973;-49
2020/12/01 02:37:08;;;;;;;26.93;14.20;;;;;;;0.00;70.70;100697.13;1813598;77;20964;-50
2020/12/01 02:39:36;;;;;;;25.50;14.73;;;;;;;0.00;70.67;100699.77;1781527;77;21103;-53
2020/12/01 02:42:07;;;;;;;23.50;13.33;;;;;;;0.00;70.59;100701.95;1812868;77;21498;-50
2020/12/01 02:44:34;;;;;;;27.70;14.93;;;;;;;-0.02;70.68;100704.16;1815899;77;20961;-49
2020/12/01 02:47:04;;;;;;;25.73;13.83;;;;;;;-0.04;70.68;100701.48;1814259;77;20968;-50
2020/12/01 02:49:34;;;;;;;26.00;13.53;;;;;;;-0.04;70.65;100712.50;1812875;77;21111;-54
2020/12/01 02:52:03;;;;;;;28.27;13.27;;;;;;;-0.07;70.77;100704.09;1812461;77;21738;-49
2020/12/01 02:54:30;;;;;;;26.00;13.60;;;;;;;-0.06;70.88;100708.95;1815828;77;21196;-54
2020/12/01 02:56:57;;;;;;;25.50;13.70;;;;;;;-0.08;70.96;100710.25;1813864;77;21150;-53
2020/12/01 02:59:25;;;;;;;20.67;12.80;;;;;;;-0.08;70.98;100713.33;1815914;77;21088;-55
2020/12/01 03:01:52;;;;;;;24.50;13.03;;;;;;;-0.11;70.98;100707.59;1814920;77;21079;-52
2020/12/01 03:04:19;;;;;;;28.57;13.77;;;;;;;-0.16;71.02;100694.73;1813788;77;21266;-55
2020/12/01 03:06:46;;;;;;;22.93;13.77;;;;;;;-0.18;71.02;100687.67;1814166;77;23336;-52
2020/12/01 03:09:16;;;;;;;25.13;12.77;;;;;;;-0.23;71.13;100692.91;1811980;77;21192;-54
2020/12/01 03:11:43;;;;;;;23.40;13.87;;;;;;;-0.25;71.20;100688.45;1774543;78;21169;-52
2020/12/01 03:14:11;;;;;;;20.43;12.40;;;;;;;-0.27;71.32;100700.38;1746869;80;21761;-52
2020/12/01 03:16:38;;;;;;;23.00;13.13;;;;;;;-0.28;71.42;100705.65;1772513;78;21217;-53
2020/12/01 03:19:06;;;;;;;23.90;13.17;;;;;;;-0.30;71.49;100710.03;1740728;80;21751;-55
2020/12/01 03:21:33;;;;;;;22.17;12.37;;;;;;;-0.31;71.59;100705.60;1758803;80;21726;-52
2020/12/01 03:24:02;;;;;;;23.80;13.87;;;;;;;-0.33;71.56;100706.91;1754464;79;21501;-55
2020/12/01 03:26:29;;;;;;;21.57;12.77;;;;;;;-0.33;71.57;100712.19;1783867;78;21594;-54
2020/12/01 03:28:56;;;;;;;25.83;12.73;;;;;;;-0.35;71.60;100710.42;1751836;80;21921;-55
2020/12/01 03:31:23;;;;;;;22.60;12.00;;;;;;;-0.41;71.65;100707.26;1749655;80;21616;-55
2020/12/01 03:33:51;;;;;;;20.67;12.27;;;;;;;-0.43;71.73;100699.77;1787329;78;21808;-53
2020/12/01 03:36:18;;;;;;;28.37;13.87;;;;;;;-0.49;71.77;100706.28;1785729;78;21175;-53
2020/12/01 03:38:46;;;;;;;20.47;11.90;;;;;;;-0.54;71.89;100706.25;1784973;78;21031;-53
2020/12/01 03:41:13;;;;;;;24.63;13.60;;;;;;;-0.56;71.99;100712.38;1787862;78;21103;-53
2020/12/01 03:43:40;;;;;;;21.83;12.53;;;;;;;-0.59;72.07;100713.22;1783206;78;21364;-55
2020/12/01 03:46:08;;;;;;;25.00;12.43;;;;;;;-0.60;72.08;100715.88;1782419;78;21527;-54
2020/12/01 03:48:35;;;;;;;25.33;13.57;;;;;;;-0.63;72.11;100717.14;1785262;78;21192;-54
2020/12/01 03:51:02;;;;;;;23.23;12.00;;;;;;;-0.65;72.14;100721.52;1783531;78;21196;-53
2020/12/01 03:53:29;;;;;;;25.37;12.40;;;;;;;-0.67;72.22;100713.56;1781090;78;21189;-53
2020/12/01 03:55:57;;;;;;;23.90;12.13;;;;;;;-0.70;72.22;100714.87;1783885;78;21786;-53
2020/12/01 03:58:24;;;;;;;18.07;10.37;;;;;;;-0.73;72.45;100704.67;1759320;79;21193;-55
2020/12/01 04:00:51;;;;;;;20.33;11.60;;;;;;;-0.75;72.48;100703.33;1786191;78;21190;-53
2020/12/01 04:03:18;;;;;;;24.93;12.80;;;;;;;-0.77;72.50;100705.09;1782393;78;21736;-55
2020/12/01 04:05:45;;;;;;;22.63;11.57;;;;;;;-0.80;72.57;100707.25;1783456;78;21535;-55
2020/12/01 04:08:13;;;;;;;19.27;11.33;;;;;;;-0.82;72.64;100703.69;1783875;78;21743;-54
2020/12/01 04:10:40;;;;;;;16.23;9.73;;;;;;;-0.83;72.62;100695.31;1782611;78;21230;-55
2020/12/01 04:13:08;;;;;;;19.20;11.40;;;;;;;-0.87;72.74;100700.12;1781268;78;21215;-52
2020/12/01 04:15:35;;;;;;;18.03;11.23;;;;;;;-0.90;72.89;100701.82;1780483;78;22722;-54
2020/12/01 04:18:02;;;;;;;17.97;10.03;;;;;;;-0.92;72.91;100692.98;1784736;78;22284;-55
2020/12/01 04:20:29;;;;;;;22.17;11.37;;;;;;;-0.95;72.91;100688.99;1785861;78;21283;-54
2020/12/01 04:22:56;;;;;;;19.57;11.70;;;;;;;-0.99;72.91;100692.45;1783627;78;21226;-55
2020/12/01 04:25:24;;;;;;;19.87;10.53;;;;;;;-1.02;72.98;100699.03;1779178;78;21567;-55
2020/12/01 04:27:53;;;;;;;17.77;10.53;;;;;;;-1.04;73.10;100700.77;1736581;80;21155;-55
2020/12/01 04:30:20;;;;;;;20.93;12.53;;;;;;;-1.07;73.08;100702.92;1740427;80;21127;-54
2020/12/01 04:32:48;;;;;;;20.63;10.90;;;;;;;-1.07;73.09;100705.56;1737013;80;21405;-56
2020/12/01 04:35:15;;;;;;;21.17;12.03;;;;;;;-1.09;73.16;100703.33;1779103;78;21986;-54
2020/12/01 04:37:42;;;;;;;20.33;12.47;;;;;;;-1.11;73.28;100699.80;1779825;78;21159;-54
2020/12/01 04:40:11;;;;;;;27.33;11.97;;;;;;;-1.12;73.25;100696.70;1779395;78;21214;-52
2020/12/01 04:42:56;;;;;;;22.37;11.97;;;;;;;-1.14;73.29;100703.70;1720041;80;21197;-55
2020/12/01 04:45:23;;;;;;;22.40;12.33;;;;;;;-1.16;73.33;100705.00;1841360;75;21593;-55
2020/12/01 04:48:12;;;;;;;19.83;11.93;;;;;;;-1.17;73.34;100708.51;1845987;75;21512;-52
2020/12/01 04:50:44;;;;;;;23.67;12.10;;;;;;;-1.17;73.35;100711.15;1789258;78;21230;-53
2020/12/01 04:53:32;;;;;;;19.83;11.57;;;;;;;-1.20;73.43;100702.31;1844495;75;21153;-56
2020/12/01 04:56:23;;;;;;;22.40;12.53;;;;;;;-1.22;73.41;100706.25;1844068;75;21178;-55
2020/12/01 04:58:56;;;;;;;24.47;12.67;;;;;;;-1.23;73.46;100712.82;1827832;75;21633;-53
2020/12/01 05:01:56;;;;;;;23.03;12.70;;;;;;;-1.26;73.57;100709.69;1847831;75;21146;-53
2020/12/01 05:04:31;;;;;;;21.70;12.23;;;;;;;-1.25;73.60;100714.11;1821925;76;21170;-53
2020/12/01 05:07:49;;;;;;;22.03;11.27;;;;;;;-1.27;73.64;100714.52;1790493;78;21188;-53
2020/12/01 05:10:13;;;;;;;21.83;12.10;;;;;;;-1.27;73.75;100722.44;1677034;82;21162;-53
2020/12/01 05:12:44;;;;;;;20.87;11.87;;;;;;;-1.28;73.71;100717.16;1673870;83;21616;-56
2020/12/01 05:15:31;;;;;;;25.43;12.70;;;;;;;-1.30;73.86;100721.53;1694366;81;21373;-56
2020/12/01 05:18:19;;;;;;;20.33;11.90;;;;;;;-1.32;73.92;100721.50;1718517;81;21225;-55
2020/12/01 05:20:53;;;;;;;24.70;12.17;;;;;;;-1.32;73.99;100722.81;1717559;81;21215;-55
2020/12/01 05:25:27;;;;;;;21.87;12.03;;;;;;;-1.27;74.13;100717.59;1871523;75;27156;-56
2020/12/01 05:28:17;;;;;;;21.85;12.80;;;;;;;-1.32;74.19;100728.53;1816301;77;21146;-56
2020/12/01 05:30:44;;;;;;;24.23;12.97;;;;;;;-1.32;74.24;100719.29;1810896;77;21341;-56
2020/12/01 05:33:25;;;;;;;26.83;14.17;;;;;;;-1.30;74.20;100721.09;1771864;78;21028;-54
2020/12/01 05:36:07;;;;;;;30.27;13.70;;;;;;;-1.31;74.19;100720.64;1732542;80;21518;-52
2020/12/01 05:38:34;;;;;;;27.50;13.13;;;;;;;-1.31;74.21;100718.43;1759724;79;21072;-55
2020/12/01 05:41:28;;;;;;;23.40;12.53;;;;;;;-1.33;74.20;100722.36;1760477;79;21195;-56
2020/12/01 05:43:59;;;;;;;26.63;12.17;;;;;;;-1.34;74.21;100723.22;1696872;79;21834;-55
2020/12/01 05:46:51;;;;;;;25.17;13.67;;;;;;;-1.34;74.30;100719.69;1760854;79;21729;-52
2020/12/01 05:49:45;;;;;;;27.37;13.13;;;;;;;-1.35;74.28;100716.16;1764004;79;21107;-55
2020/12/01 05:52:31;;;;;;;30.27;12.23;;;;;;;-1.36;74.23;100724.09;1768507;79;21440;-56
2020/12/01 05:55:18;;;;;;;25.13;12.53;;;;;;;-1.39;74.32;100717.00;1755232;79;21179;-55
2020/12/01 05:58:01;;;;;;;28.80;13.03;;;;;;;-1.39;74.42;100732.84;1766649;79;23407;-56
2020/12/01 06:00:33;;;;;;;29.12;13.35;;;;;;;-1.39;74.51;100727.56;1753636;79;21515;-55
2020/12/01 06:03:21;;;;;;;30.30;13.73;;;;;;;-1.36;74.52;100729.38;1763392;79;21609;-53
2020/12/01 06:06:00;;;;;;;29.30;14.53;;;;;;;-1.28;74.52;100729.05;1822020;75;26884;-53
2020/12/01 06:08:50;;;;;;;31.13;14.50;;;;;;;-1.30;74.55;100736.05;1768227;77;21096;-52
2020/12/01 06:11:39;;;;;;;27.73;13.57;;;;;;;-1.29;74.64;100725.95;1798045;77;22248;-55
2020/12/01 06:14:17;;;;;;;26.53;13.90;;;;;;;-1.29;74.64;100732.55;1811066;77;20980;-56
2020/12/01 06:16:49;;;;;;;31.23;13.40;;;;;;;-1.29;74.75;100733.88;1773924;77;21408;-54
2020/12/01 06:19:38;;;;;;;29.30;14.40;;;;;;;-1.30;74.87;100734.30;1803423;77;20985;-53
2020/12/01 06:22:17;;;;;;;26.33;12.90;;;;;;;-1.29;75.00;100725.95;1803746;77;21462;-57
2020/12/01 06:25:05;;;;;;;23.53;11.77;;;;;;;-1.26;75.08;100727.30;1737957;80;21483;-52
2020/12/01 06:27:53;;;;;;;20.43;10.60;;;;;;;-1.24;75.34;100734.81;1730947;79;21591;-56
2020/12/01 06:31:07;;;;;;;26.07;12.60;;;;;;;-1.22;75.58;100735.30;1724178;81;21178;-56
2020/12/01 06:34:06;;;;;;;39.10;16.47;;;;;;;-1.13;75.72;100742.91;1721968;81;21205;-55
2020/12/01 06:37:06;;;;;;;37.10;16.47;;;;;;;-1.07;75.94;100749.16;1725469;81;21206;-55
2020/12/01 06:39:59;;;;;;;28.33;13.10;;;;;;;-1.06;76.05;100743.02;1728485;81;21814;-56
2020/12/01 06:42:43;;;;;;;42.27;19.00;;;;;;;-1.03;76.23;100733.82;1726577;81;21123;-57
2020/12/01 06:45:31;;;;;;;36.87;16.33;;;;;;;-1.01;76.26;100736.03;1777836;79;21103;-57
2020/12/01 06:48:15;;;;;;;35.30;17.77;;;;;;;-0.96;76.39;100738.75;1783643;79;21510;-55
2020/12/01 06:50:57;;;;;;;23.12;14.80;;;;;;;-0.92;76.50;100740.12;1779596;79;21170;-53
2020/12/01 06:53:33;;;;;;;28.60;15.23;;;;;;;-0.86;76.60;100745.52;1774525;79;21918;-54
2020/12/01 06:56:09;;;;;;;25.57;13.70;;;;;;;-0.79;76.65;100747.80;1776521;79;21520;-53
2020/12/01 06:58:47;;;;;;;22.43;13.77;;;;;;;-0.72;76.67;100747.44;1764489;79;21728;-54
2020/12/01 07:01:25;;;;;;;27.03;16.07;;;;;;;-0.68;76.69;100750.13;1775432;79;21119;-52
2020/12/01 07:04:19;;;;;;;24.77;14.80;;;;;;;-0.65;76.73;100746.20;1768468;79;22292;-54
2020/12/01 07:06:54;;;;;;;27.40;14.53;;;;;;;-0.64;76.84;100749.31;1767807;79;21198;-55
2020/12/01 07:09:34;;;;;;;29.93;14.37;;;;;;;-0.60;76.96;100756.86;1748334;80;21236;-56
2020/12/01 07:12:25;;;;;;;32.23;16.63;;;;;;;-0.53;76.95;100756.06;1707318;81;21193;-56
2020/12/01 07:15:15;;;;;;;26.10;13.87;;;;;;;-0.50;76.91;100754.33;1753189;80;21185;-56
2020/12/01 07:18:11;;;;;;;24.00;13.50;;;;;;;-0.51;76.93;100755.66;1713706;81;21618;-55
2020/12/01 07:20:43;;;;;;;26.53;13.93;;;;;;;-0.47;77.00;100760.98;1768665;79;21385;-56
2020/12/01 07:23:28;;;;;;;32.13;14.83;;;;;;;-0.41;76.98;100760.16;1764151;79;21222;-54
2020/12/01 07:26:01;;;;;;;27.75;13.68;;;;;;;-0.40;76.89;100757.97;1768935;79;22190;-57
2020/12/01 07:28:41;;;;;;;34.33;14.13;;;;;;;-0.41;76.86;100754.44;1766517;79;21601;-56
2020/12/01 07:31:29;;;;;;;28.33;14.83;;;;;;;-0.37;76.73;100746.12;1746224;80;22330;-55
2020/12/01 07:34:22;;;;;;;28.57;12.77;;;;;;;-0.29;76.75;100746.20;1867410;74;27367;-52
2020/12/01 07:36:54;;;;;;;26.73;11.10;;;;;;;-0.29;76.63;100754.14;1836661;75;21034;-53
2020/12/01 07:39:27;;;;;;;33.70;12.67;;;;;;;-0.25;76.54;100759.89;1836115;75;21261;-56
2020/12/01 07:41:58;;;;;;;34.63;14.60;;;;;;;-0.23;76.37;100748.47;1803700;78;21317;-56
2020/12/01 07:44:29;;;;;;;30.30;13.00;;;;;;;-0.20;76.31;100759.53;1783878;78;21371;-56
2020/12/01 07:47:13;;;;;;;33.10;13.83;;;;;;;-0.17;76.28;100748.53;1800761;78;21786;-57
2020/12/01 07:49:40;;;;;;;20.93;10.57;;;;;;;-0.15;76.12;100747.23;1759858;78;21229;-54
2020/12/01 07:52:25;;;;;;;23.20;10.63;;;;;;;-0.15;76.08;100742.83;1801078;78;21608;-54
2020/12/01 07:55:02;;;;;;;34.25;12.35;;;;;;;-0.10;75.95;100743.78;1778405;78;21448;-53
2020/12/01 07:57:29;;;;;;;19.13;10.93;;;;;;;-0.10;75.77;100748.18;1773634;78;21479;-55
2020/12/01 07:59:57;;;;;;;23.23;10.90;;;;;;;-0.12;75.86;100741.55;1801602;77;21198;-53
2020/12/01 08:02:28;;;;;;;24.97;9.60;;;;;;;-0.09;75.73;100740.27;1799387;77;22415;-57
2020/12/01 08:05:07;;;;;;;17.37;8.10;;;;;;;-0.08;75.52;100742.01;1800553;78;21247;-55
2020/12/01 08:07:35;;;;;;;19.43;9.30;;;;;;;-0.09;75.49;100745.56;1798902;78;21157;-53
2020/12/01 08:10:11;;;;;;;17.03;7.07;;;;;;;-0.08;75.36;100751.27;1782238;78;21722;-53
2020/12/01 08:12:42;;;;;;;16.30;7.50;;;;;;;-0.10;75.07;100750.83;1780260;78;21597;-55
2020/12/01 08:15:19;;;;;;;12.83;6.60;;;;;;;-0.11;75.13;100750.38;1772958;79;21234;-56
2020/12/01 08:17:46;;;;;;;17.37;7.50;;;;;;;-0.09;74.97;100757.91;1776417;78;22637;-57
2020/12/01 08:20:19;;;;;;;16.20;6.10;;;;;;;-0.12;74.87;100743.30;1803387;78;21186;-56
2020/12/01 08:22:52;;;;;;;16.17;7.47;;;;;;;-0.10;74.85;100749.07;1802061;78;21164;-57
2020/12/01 08:25:21;;;;;;;13.67;6.60;;;;;;;-0.09;74.72;100737.62;1799836;78;21109;-53
2020/12/01 08:28:10;;;;;;;17.50;8.07;;;;;;;-0.07;74.82;100741.14;1800993;77;22253;-56
2020/12/01 08:31:20;;;;;;;13.47;7.37;;;;;;;0.00;74.70;100756.20;1786649;78;22757;-57
2020/12/01 08:34:29;;;;;;;12.83;6.73;;;;;;;0.04;74.39;100756.25;1800656;78;21213;-55
2020/12/01 08:37:15;;;;;;;20.73;9.00;;;;;;;-0.01;74.50;100757.11;1802798;77;21194;-53
2020/12/01 08:40:05;;;;;;;21.87;9.50;;;;;;;0.02;74.46;100754.91;1789457;78;21202;-56
2020/12/01 08:42:54;;;;;;;17.97;8.10;;;;;;;0.08;74.25;100754.99;1798171;77;21239;-54
2020/12/01 08:46:02;;;;;;;14.03;7.90;;;;;;;0.10;74.12;100745.28;1722560;79;21411;-54
2020/12/01 08:48:38;;;;;;;11.33;6.57;;;;;;;0.12;73.94;100747.95;1796528;77;21253;-55
2020/12/01 08:51:26;;;;;;;10.78;5.47;;;;;;;0.13;74.02;100737.38;1771233;78;21185;-56
2020/12/01 08:54:02;;;;;;;12.27;7.87;;;;;;;0.18;73.98;100745.34;1802325;78;21451;-56
2020/12/01 08:56:47;;;;;;;8.60;5.03;;;;;;;0.20;73.91;100729.05;1802083;78;21151;-56
2020/12/01 08:59:41;;;;;;;11.97;3.83;;;;;;;0.19;73.59;100730.80;1782454;78;21207;-54
2020/12/01 09:02:10;;;;;;;9.03;4.83;;;;;;;0.13;73.21;100732.08;1805007;78;21205;-55
2020/12/01 09:04:38;;;;;;;6.70;3.70;;;;;;;0.07;73.50;100737.33;1781969;78;21193;-56
2020/12/01 09:07:17;;;;;;;8.83;3.57;;;;;;;0.03;73.26;100735.51;1779856;78;21099;-54
2020/12/01 09:09:43;;;;;;;4.53;3.40;;;;;;;-0.01;73.16;100728.00;1766757;78;21194;-56
2020/12/01 09:23:31;;;;;;;7.13;3.27;;;;;;;0.08;73.36;100713.96;1820686;76;26910;-55
2020/12/01 09:25:56;;;;;;;;;;;;;;;0.07;73.32;100717.91;1787525;77;21227;-56
2020/12/01 09:28:27;;;;;;;8.37;4.73;;;;;;;0.09;73.17;100714.81;1771674;79;20547;-57
2020/12/01 09:31:03;;;;;;;6.43;3.53;;;;;;;0.10;73.22;100721.89;1768806;80;20984;-55
2020/12/01 09:33:31;;;;;;;8.07;3.17;;;;;;;0.10;73.20;100710.86;1768144;80;21735;-55
2020/12/01 09:36:00;;;;;;;5.53;3.67;;;;;;;0.09;72.86;100709.09;1766894;79;21486;-55
2020/12/01 09:38:28;;;;;;;8.80;3.77;;;;;;;0.08;72.86;100713.96;1772588;79;20984;-56
2020/12/01 09:40:55;;;;;;;9.03;4.27;;;;;;;0.06;73.04;100710.84;1768143;79;21351;-56
2020/12/01 09:43:40;;;;;;;5.00;3.20;;;;;;;0.06;73.14;100704.22;1734588;81;21209;-56
2020/12/01 09:46:10;;;;;;;5.40;3.03;;;;;;;0.08;72.89;100713.07;1734735;80;21181;-55
2020/12/01 09:48:39;;;;;;;9.93;4.00;;;;;;;0.09;73.05;100706.44;1721315;82;20999;-57
2020/12/01 09:51:06;;;;;;;8.50;3.67;;;;;;;0.14;73.19;100701.20;1768344;79;21122;-56
2020/12/01 09:56:13;;;;;;;7.53;4.10;;;;;;;0.21;72.66;100705.23;1767275;80;21171;-58
2020/12/01 09:59:09;;;;;;;11.63;4.80;;;;;;;0.24;72.42;100709.69;1770671;79;21107;-56
2020/12/01 10:04:52;;;;;;;7.43;3.80;;;;;;;0.27;72.42;100697.77;1776318;79;21223;-58
2020/12/01 10:09:35;;;;;;;13.70;4.50;;;;;;;0.25;72.28;100696.89;1767943;80;21007;-59
2020/12/01 10:35:39;;;;;;;13.60;5.67;;;;;;;0.13;74.04;100683.11;1766253;80;21159;-58
2020/12/01 10:38:07;;;;;;;7.20;3.93;;;;;;;0.14;74.02;100682.67;1763889;80;21199;-58
2020/12/01 10:40:34;;;;;;;13.63;5.63;;;;;;;0.12;73.81;100685.30;1761523;80;21753;-57
2020/12/01 10:43:01;;;;;;;12.63;5.77;;;;;;;0.11;74.00;100683.95;1764162;80;21151;-56
2020/12/01 10:45:29;;;;;;;9.07;3.83;;;;;;;0.11;74.20;100683.95;1768302;80;21827;-58
2020/12/01 10:47:58;;;;;;;8.30;3.37;;;;;;;0.15;74.32;100679.16;1760083;80;21190;-57
2020/12/01 10:50:28;;;;;;;4.63;2.80;;;;;;;0.19;74.36;100680.94;1764512;79;21439;-58
2020/12/01 10:52:56;;;;;;;7.80;4.10;;;;;;;0.23;74.40;100673.05;1768587;80;21227;-58
2020/12/01 10:55:27;;;;;;;4.90;3.17;;;;;;;0.24;74.34;100669.53;1765705;80;22656;-59
2020/12/01 10:57:55;;;;;;;4.77;2.80;;;;;;;0.26;74.42;100673.05;1765854;79;21528;-58
2020/12/01 11:00:25;;;;;;;5.20;3.00;;;;;;;0.30;74.36;100675.30;1766264;80;21231;-59
2020/12/01 11:02:52;;;;;;;10.07;4.97;;;;;;;0.31;74.53;100670.02;1769594;80;21183;-57
2020/12/01 11:05:26;;;;;;;2.60;1.80;;;;;;;0.31;74.10;100675.75;1768923;79;21183;-58
2020/12/01 11:07:54;;;;;;;3.90;2.33;;;;;;;0.28;73.97;100674.39;1769602;80;21622;-60
2020/12/01 11:10:21;;;;;;;4.17;2.63;;;;;;;0.22;74.30;100669.06;1766217;80;22594;-59
2020/12/01 11:12:48;;;;;;;4.73;2.33;;;;;;;0.21;74.43;100669.49;1762873;79;21237;-59
2020/12/01 11:15:17;;;;;;;5.93;2.73;;;;;;;0.20;74.52;100665.50;1759790;79;21597;-59
2020/12/01 11:17:44;;;;;;;4.97;3.00;;;;;;;0.21;74.74;100662.88;1764318;79;21163;-58
2020/12/01 11:20:12;;;;;;;6.10;2.40;;;;;;;0.25;74.68;100670.42;1760956;79;21167;-58
2020/12/01 11:22:39;;;;;;;5.13;2.20;;;;;;;0.26;74.69;100667.75;1771207;80;21617;-56
2020/12/01 11:25:06;;;;;;;5.20;2.00;;;;;;;0.26;74.61;100662.45;1769911;80;21181;-59
2020/12/01 11:27:34;;;;;;;5.93;2.50;;;;;;;0.27;74.51;100659.38;1772313;79;21194;-56
2020/12/01 11:30:03;;;;;;;3.73;2.20;;;;;;;0.24;74.78;100656.29;1766991;79;21220;-59
2020/12/01 11:32:30;;;;;;;6.13;2.37;;;;;;;0.25;74.84;100656.74;1774928;80;21143;-56
2020/12/01 11:34:58;;;;;;;5.97;3.90;;;;;;;0.23;75.24;100659.80;1772157;80;21380;-58
2020/12/01 11:37:25;;;;;;;7.37;4.07;;;;;;;0.22;75.53;100663.77;1773079;79;21186;-56
2020/12/01 11:39:52;;;;;;;6.50;3.90;;;;;;;0.21;75.62;100656.69;1768510;80;21175;-59
2020/12/01 11:42:19;;;;;;;4.47;3.40;;;;;;;0.17;76.03;100666.35;1767659;79;21597;-57
2020/12/01 11:44:47;;;;;;;5.00;2.73;;;;;;;0.15;76.00;100657.97;1769554;79;21221;-59
2020/12/01 11:47:14;;;;;;;3.93;2.47;;;;;;;0.11;76.07;100660.13;1771185;80;21332;-59
2020/12/01 11:49:41;;;;;;;4.93;2.50;;;;;;;0.12;76.11;100660.58;1771616;79;21811;-57
2020/12/01 11:52:09;;;;;;;5.20;2.23;;;;;;;0.12;75.98;100660.15;1772833;80;21170;-59
2020/12/01 11:54:37;;;;;;;3.83;1.67;;;;;;;0.11;75.99;100649.11;1770388;80;21222;-59
2020/12/01 11:57:04;;;;;;;3.00;1.77;;;;;;;0.08;76.01;100649.10;1770660;79;21624;-59
2020/12/01 11:59:32;;;;;;;6.47;2.03;;;;;;;0.07;76.15;100651.30;1774180;80;22716;-59
2020/12/01 12:01:59;;;;;;;7.00;2.23;;;;;;;0.08;76.25;100645.12;1768442;79;21189;-58
2020/12/01 12:04:26;;;;;;;3.37;1.80;;;;;;;0.09;76.34;100648.20;1769740;80;21751;-59
2020/12/01 12:06:53;;;;;;;3.67;2.40;;;;;;;0.12;76.60;100643.38;1769041;79;21692;-58
2020/12/01 12:09:21;;;;;;;3.80;2.20;;;;;;;0.18;76.69;100646.06;1767085;80;21175;-57
2020/12/01 12:11:48;;;;;;;3.77;2.03;;;;;;;0.22;76.64;100643.47;1763001;79;22316;-58
2020/12/01 12:14:15;;;;;;;4.43;1.93;;;;;;;0.26;76.45;100640.39;1767961;79;21999;-58
2020/12/01 12:16:43;;;;;;;3.53;1.73;;;;;;;0.27;76.27;100644.81;1765964;79;21111;-59
2020/12/01 12:19:10;;;;;;;2.80;1.93;;;;;;;0.23;76.24;100645.24;1768376;80;21695;-57
2020/12/01 12:21:37;;;;;;;4.27;2.20;;;;;;;0.22;76.22;100650.52;1767778;79;21174;-58
2020/12/01 12:24:04;;;;;;;4.00;2.20;;;;;;;0.21;76.23;100653.61;1760194;79;22513;-58
2020/12/01 12:26:32;;;;;;;5.33;2.27;;;;;;;0.20;76.29;100650.50;1761715;79;21191;-56
2020/12/01 12:28:59;;;;;;;4.23;1.73;;;;;;;0.24;76.34;100656.73;1766364;80;21182;-59
2020/12/01 12:31:26;;;;;;;4.03;2.87;;;;;;;0.25;76.31;100659.83;1759047;79;21190;-59